sensor_id;sensor_type;location;lat;lon;timestamp;P1;durP1;ratioP1;P2;durP2;ratioP2
31872;SDS011;22407;42.820;23.374;2024-02-15T00:02:06;19.03;;;10.47;;
31872;SDS011;22407;42.820;23.374;2024-02-15T00:04:31;18.33;;;10.27;;
31872;SDS011;22407;42.820;23.374;2024-02-15T00:06:58;19.48;;;11.48;;
31872;SDS011;22407;42.820;23.374;2024-02-15T00:09:25;21.33;;;11.30;;
31872;SDS011;22407;42.820;23.374;2024-02-15T00:11:50;21.10;;;12.20;;
31872;SDS011;22407;42.820;23.374;2024-02-15T00:14:16;20.02;;;11.52;;
31872;SDS011;22407;42.820;23.374;2024-02-15T00:16:42;19.60;;;10.57;;
31872;SDS011;22407;42.820;23.374;2024-02-15T00:19:07;19.10;;;10.52;;
31872;SDS011;22407;42.820;23.374;2024-02-15T00:21:33;16.73;;;9.90;;
31872;SDS011;22407;42.820;23.374;2024-02-15T00:23:58;18.02;;;9.68;;
31872;SDS011;22407;42.820;23.374;2024-02-15T00:26:25;18.23;;;10.60;;
31872;SDS011;22407;42.820;23.374;2024-02-15T00:28:51;18.80;;;11.15;;
31872;SDS011;22407;42.820;23.374;2024-02-15T00:31:17;25.10;;;12.20;;
31872;SDS011;22407;42.820;23.374;2024-02-15T00:33:43;22.77;;;12.23;;
31872;SDS011;22407;42.820;23.374;2024-02-15T00:36:09;24.40;;;12.00;;
31872;SDS011;22407;42.820;23.374;2024-02-15T00:38:35;22.23;;;11.80;;
31872;SDS011;22407;42.820;23.374;2024-02-15T00:41:01;20.73;;;12.05;;
31872;SDS011;22407;42.820;23.374;2024-02-15T00:43:27;20.37;;;10.90;;
31872;SDS011;22407;42.820;23.374;2024-02-15T00:45:53;17.13;;;10.25;;
31872;SDS011;22407;42.820;23.374;2024-02-15T00:48:18;21.37;;;11.50;;
31872;SDS011;22407;42.820;23.374;2024-02-15T00:50:44;20.52;;;11.07;;
31872;SDS011;22407;42.820;23.374;2024-02-15T00:53:10;21.87;;;11.33;;
31872;SDS011;22407;42.820;23.374;2024-02-15T00:55:35;19.73;;;10.87;;
31872;SDS011;22407;42.820;23.374;2024-02-15T00:58:01;20.67;;;11.23;;
31872;SDS011;22407;42.820;23.374;2024-02-15T01:00:27;21.60;;;11.70;;
31872;SDS011;22407;42.820;23.374;2024-02-15T01:02:53;20.58;;;11.73;;
31872;SDS011;22407;42.820;23.374;2024-02-15T01:05:20;24.03;;;11.50;;
31872;SDS011;22407;42.820;23.374;2024-02-15T01:07:47;18.20;;;10.82;;
31872;SDS011;22407;42.820;23.374;2024-02-15T01:10:14;18.70;;;10.82;;
31872;SDS011;22407;42.820;23.374;2024-02-15T01:12:40;20.33;;;11.27;;
31872;SDS011;22407;42.820;23.374;2024-02-15T01:15:05;17.87;;;10.57;;
31872;SDS011;22407;42.820;23.374;2024-02-15T01:17:31;18.50;;;10.30;;
31872;SDS011;22407;42.820;23.374;2024-02-15T01:19:57;17.73;;;10.80;;
31872;SDS011;22407;42.820;23.374;2024-02-15T01:22:22;18.63;;;10.90;;
31872;SDS011;22407;42.820;23.374;2024-02-15T01:24:50;18.60;;;10.52;;
31872;SDS011;22407;42.820;23.374;2024-02-15T01:27:15;19.88;;;10.82;;
31872;SDS011;22407;42.820;23.374;2024-02-15T01:29:42;20.98;;;11.40;;
31872;SDS011;22407;42.820;23.374;2024-02-15T01:32:07;20.27;;;10.87;;
31872;SDS011;22407;42.820;23.374;2024-02-15T01:34:33;20.00;;;11.38;;
31872;SDS011;22407;42.820;23.374;2024-02-15T01:36:59;19.00;;;10.60;;
31872;SDS011;22407;42.820;23.374;2024-02-15T01:39:25;18.77;;;11.38;;
31872;SDS011;22407;42.820;23.374;2024-02-15T01:41:50;21.53;;;11.50;;
31872;SDS011;22407;42.820;23.374;2024-02-15T01:44:19;17.25;;;10.23;;
31872;SDS011;22407;42.820;23.374;2024-02-15T01:46:45;17.95;;;11.18;;
31872;SDS011;22407;42.820;23.374;2024-02-15T01:49:13;19.27;;;10.20;;
31872;SDS011;22407;42.820;23.374;2024-02-15T01:51:38;17.33;;;10.00;;
31872;SDS011;22407;42.820;23.374;2024-02-15T01:54:06;19.67;;;10.35;;
31872;SDS011;22407;42.820;23.374;2024-02-15T01:56:31;18.30;;;10.82;;
31872;SDS011;22407;42.820;23.374;2024-02-15T01:58:57;17.73;;;9.97;;
31872;SDS011;22407;42.820;23.374;2024-02-15T02:01:23;19.80;;;10.35;;
31872;SDS011;22407;42.820;23.374;2024-02-15T02:03:49;16.67;;;9.75;;
31872;SDS011;22407;42.820;23.374;2024-02-15T02:06:15;18.03;;;10.40;;
31872;SDS011;22407;42.820;23.374;2024-02-15T02:08:41;18.65;;;10.65;;
31872;SDS011;22407;42.820;23.374;2024-02-15T02:11:06;21.30;;;10.27;;
31872;SDS011;22407;42.820;23.374;2024-02-15T02:13:32;18.63;;;10.15;;
31872;SDS011;22407;42.820;23.374;2024-02-15T02:15:57;17.87;;;10.10;;
31872;SDS011;22407;42.820;23.374;2024-02-15T02:18:25;17.58;;;10.55;;
31872;SDS011;22407;42.820;23.374;2024-02-15T02:20:50;18.77;;;10.63;;
31872;SDS011;22407;42.820;23.374;2024-02-15T02:23:16;16.63;;;9.97;;
31872;SDS011;22407;42.820;23.374;2024-02-15T02:25:45;18.30;;;10.63;;
31872;SDS011;22407;42.820;23.374;2024-02-15T02:28:14;20.10;;;10.40;;
31872;SDS011;22407;42.820;23.374;2024-02-15T02:30:41;17.58;;;9.27;;
31872;SDS011;22407;42.820;23.374;2024-02-15T02:33:11;19.45;;;10.27;;
31872;SDS011;22407;42.820;23.374;2024-02-15T02:35:43;18.75;;;10.10;;
31872;SDS011;22407;42.820;23.374;2024-02-15T02:38:09;17.63;;;10.27;;
31872;SDS011;22407;42.820;23.374;2024-02-15T02:40:35;18.50;;;9.98;;
31872;SDS011;22407;42.820;23.374;2024-02-15T02:43:01;18.77;;;9.60;;
31872;SDS011;22407;42.820;23.374;2024-02-15T02:45:26;16.10;;;9.32;;
31872;SDS011;22407;42.820;23.374;2024-02-15T02:47:53;17.75;;;9.98;;
31872;SDS011;22407;42.820;23.374;2024-02-15T02:50:19;18.70;;;9.93;;
31872;SDS011;22407;42.820;23.374;2024-02-15T02:52:48;17.02;;;9.93;;
31872;SDS011;22407;42.820;23.374;2024-02-15T02:55:14;17.10;;;9.20;;
31872;SDS011;22407;42.820;23.374;2024-02-15T02:57:40;17.75;;;9.13;;
31872;SDS011;22407;42.820;23.374;2024-02-15T03:00:08;16.87;;;9.80;;
31872;SDS011;22407;42.820;23.374;2024-02-15T03:02:38;17.17;;;9.57;;
31872;SDS011;22407;42.820;23.374;2024-02-15T03:05:04;17.33;;;9.82;;
31872;SDS011;22407;42.820;23.374;2024-02-15T03:07:34;18.02;;;10.52;;
31872;SDS011;22407;42.820;23.374;2024-02-15T03:10:01;18.15;;;10.85;;
31872;SDS011;22407;42.820;23.374;2024-02-15T03:12:33;17.20;;;9.77;;
31872;SDS011;22407;42.820;23.374;2024-02-15T03:15:01;15.75;;;9.25;;
31872;SDS011;22407;42.820;23.374;2024-02-15T03:17:30;16.88;;;9.23;;
31872;SDS011;22407;42.820;23.374;2024-02-15T03:19:58;17.13;;;9.60;;
31872;SDS011;22407;42.820;23.374;2024-02-15T03:22:24;17.17;;;9.87;;
31872;SDS011;22407;42.820;23.374;2024-02-15T03:24:51;18.13;;;9.57;;
31872;SDS011;22407;42.820;23.374;2024-02-15T03:27:17;17.30;;;9.88;;
31872;SDS011;22407;42.820;23.374;2024-02-15T03:29:43;16.87;;;9.47;;
31872;SDS011;22407;42.820;23.374;2024-02-15T03:32:08;17.02;;;9.05;;
31872;SDS011;22407;42.820;23.374;2024-02-15T03:34:36;17.27;;;9.97;;
31872;SDS011;22407;42.820;23.374;2024-02-15T03:37:02;16.98;;;9.05;;
31872;SDS011;22407;42.820;23.374;2024-02-15T03:39:28;16.83;;;10.00;;
31872;SDS011;22407;42.820;23.374;2024-02-15T03:41:55;17.57;;;9.50;;
31872;SDS011;22407;42.820;23.374;2024-02-15T03:44:21;16.33;;;9.48;;
31872;SDS011;22407;42.820;23.374;2024-02-15T03:46:46;19.13;;;9.10;;
31872;SDS011;22407;42.820;23.374;2024-02-15T03:49:16;18.83;;;9.70;;
31872;SDS011;22407;42.820;23.374;2024-02-15T03:51:43;16.70;;;9.95;;
31872;SDS011;22407;42.820;23.374;2024-02-15T03:54:10;17.08;;;10.00;;
31872;SDS011;22407;42.820;23.374;2024-02-15T03:56:36;18.05;;;9.93;;
31872;SDS011;22407;42.820;23.374;2024-02-15T03:59:02;19.13;;;9.97;;
31872;SDS011;22407;42.820;23.374;2024-02-15T04:01:29;18.05;;;9.23;;
31872;SDS011;22407;42.820;23.374;2024-02-15T04:03:59;18.63;;;9.88;;
31872;SDS011;22407;42.820;23.374;2024-02-15T04:06:25;17.17;;;9.27;;
31872;SDS011;22407;42.820;23.374;2024-02-15T04:08:52;18.40;;;10.20;;
31872;SDS011;22407;42.820;23.374;2024-02-15T04:11:18;21.13;;;10.90;;
31872;SDS011;22407;42.820;23.374;2024-02-15T04:13:45;19.17;;;10.50;;
31872;SDS011;22407;42.820;23.374;2024-02-15T04:16:10;18.77;;;10.40;;
31872;SDS011;22407;42.820;23.374;2024-02-15T04:18:36;18.73;;;10.57;;
31872;SDS011;22407;42.820;23.374;2024-02-15T04:21:03;20.00;;;10.88;;
31872;SDS011;22407;42.820;23.374;2024-02-15T04:23:31;19.58;;;10.15;;
31872;SDS011;22407;42.820;23.374;2024-02-15T04:25:57;19.17;;;9.83;;
31872;SDS011;22407;42.820;23.374;2024-02-15T04:28:24;19.35;;;10.63;;
31872;SDS011;22407;42.820;23.374;2024-02-15T04:30:50;18.97;;;10.43;;
31872;SDS011;22407;42.820;23.374;2024-02-15T04:33:16;22.80;;;11.73;;
31872;SDS011;22407;42.820;23.374;2024-02-15T04:35:41;23.37;;;11.80;;
31872;SDS011;22407;42.820;23.374;2024-02-15T04:38:08;26.45;;;13.10;;
31872;SDS011;22407;42.820;23.374;2024-02-15T04:40:34;26.52;;;12.45;;
31872;SDS011;22407;42.820;23.374;2024-02-15T04:43:00;22.33;;;11.23;;
31872;SDS011;22407;42.820;23.374;2024-02-15T04:45:29;19.75;;;10.55;;
31872;SDS011;22407;42.820;23.374;2024-02-15T04:47:56;18.15;;;10.60;;
31872;SDS011;22407;42.820;23.374;2024-02-15T04:50:22;19.52;;;10.45;;
31872;SDS011;22407;42.820;23.374;2024-02-15T04:52:47;18.07;;;10.07;;
31872;SDS011;22407;42.820;23.374;2024-02-15T04:55:14;19.98;;;10.10;;
31872;SDS011;22407;42.820;23.374;2024-02-15T04:57:41;19.98;;;10.77;;
31872;SDS011;22407;42.820;23.374;2024-02-15T05:00:06;20.10;;;10.87;;
31872;SDS011;22407;42.820;23.374;2024-02-15T05:02:36;19.10;;;10.40;;
31872;SDS011;22407;42.820;23.374;2024-02-15T05:05:08;17.52;;;10.23;;
31872;SDS011;22407;42.820;23.374;2024-02-15T05:07:34;21.98;;;13.23;;
31872;SDS011;22407;42.820;23.374;2024-02-15T05:10:03;26.38;;;14.55;;
31872;SDS011;22407;42.820;23.374;2024-02-15T05:12:31;23.40;;;12.80;;
31872;SDS011;22407;42.820;23.374;2024-02-15T05:14:58;25.38;;;13.20;;
31872;SDS011;22407;42.820;23.374;2024-02-15T05:17:24;25.23;;;14.95;;
31872;SDS011;22407;42.820;23.374;2024-02-15T05:19:50;28.27;;;15.00;;
31872;SDS011;22407;42.820;23.374;2024-02-15T05:22:15;27.08;;;15.10;;
31872;SDS011;22407;42.820;23.374;2024-02-15T05:24:41;28.00;;;16.43;;
31872;SDS011;22407;42.820;23.374;2024-02-15T05:27:07;23.40;;;12.73;;
31872;SDS011;22407;42.820;23.374;2024-02-15T05:29:32;19.60;;;10.73;;
31872;SDS011;22407;42.820;23.374;2024-02-15T05:31:59;20.15;;;10.30;;
31872;SDS011;22407;42.820;23.374;2024-02-15T05:34:26;19.80;;;10.60;;
31872;SDS011;22407;42.820;23.374;2024-02-15T05:36:52;22.57;;;10.90;;
31872;SDS011;22407;42.820;23.374;2024-02-15T05:39:17;17.50;;;9.80;;
31872;SDS011;22407;42.820;23.374;2024-02-15T05:41:46;17.55;;;10.20;;
31872;SDS011;22407;42.820;23.374;2024-02-15T05:44:12;22.67;;;11.13;;
31872;SDS011;22407;42.820;23.374;2024-02-15T05:46:39;20.40;;;10.93;;
31872;SDS011;22407;42.820;23.374;2024-02-15T05:49:05;21.95;;;11.13;;
31872;SDS011;22407;42.820;23.374;2024-02-15T05:51:31;25.77;;;11.20;;
31872;SDS011;22407;42.820;23.374;2024-02-15T05:53:57;19.65;;;10.90;;
31872;SDS011;22407;42.820;23.374;2024-02-15T05:56:26;20.60;;;10.10;;
31872;SDS011;22407;42.820;23.374;2024-02-15T05:58:53;20.25;;;10.13;;
31872;SDS011;22407;42.820;23.374;2024-02-15T06:01:19;30.37;;;12.73;;
31872;SDS011;22407;42.820;23.374;2024-02-15T06:03:44;51.13;;;18.33;;
31872;SDS011;22407;42.820;23.374;2024-02-15T06:06:11;49.58;;;15.73;;
31872;SDS011;22407;42.820;23.374;2024-02-15T06:08:37;27.98;;;12.25;;
31872;SDS011;22407;42.820;23.374;2024-02-15T06:11:03;26.87;;;12.03;;
31872;SDS011;22407;42.820;23.374;2024-02-15T06:13:30;26.40;;;11.18;;
31872;SDS011;22407;42.820;23.374;2024-02-15T06:15:56;38.83;;;15.10;;
31872;SDS011;22407;42.820;23.374;2024-02-15T06:18:26;24.07;;;11.17;;
31872;SDS011;22407;42.820;23.374;2024-02-15T06:20:54;31.05;;;9.70;;
31872;SDS011;22407;42.820;23.374;2024-02-15T06:23:24;17.70;;;8.75;;
31872;SDS011;22407;42.820;23.374;2024-02-15T06:25:52;23.05;;;9.60;;
31872;SDS011;22407;42.820;23.374;2024-02-15T06:28:19;29.20;;;12.05;;
31872;SDS011;22407;42.820;23.374;2024-02-15T06:31:07;26.70;;;12.00;;
31872;SDS011;22407;42.820;23.374;2024-02-15T06:33:51;30.85;;;13.40;;
31872;SDS011;22407;42.820;23.374;2024-02-15T06:36:39;27.55;;;13.77;;
31872;SDS011;22407;42.820;23.374;2024-02-15T06:39:30;28.40;;;13.90;;
31872;SDS011;22407;42.820;23.374;2024-02-15T06:42:08;25.27;;;12.65;;
31872;SDS011;22407;42.820;23.374;2024-02-15T06:44:35;23.97;;;12.30;;
31872;SDS011;22407;42.820;23.374;2024-02-15T06:47:01;25.40;;;12.15;;
31872;SDS011;22407;42.820;23.374;2024-02-15T06:49:27;24.47;;;11.67;;
31872;SDS011;22407;42.820;23.374;2024-02-15T06:51:52;29.48;;;14.18;;
31872;SDS011;22407;42.820;23.374;2024-02-15T06:54:18;35.37;;;17.07;;
31872;SDS011;22407;42.820;23.374;2024-02-15T06:56:44;33.10;;;15.85;;
31872;SDS011;22407;42.820;23.374;2024-02-15T06:59:13;31.38;;;16.17;;
31872;SDS011;22407;42.820;23.374;2024-02-15T07:01:43;19.40;;;10.73;;
31872;SDS011;22407;42.820;23.374;2024-02-15T07:04:09;16.70;;;8.93;;
31872;SDS011;22407;42.820;23.374;2024-02-15T07:06:37;17.38;;;9.05;;
31872;SDS011;22407;42.820;23.374;2024-02-15T07:09:04;26.97;;;13.40;;
31872;SDS011;22407;42.820;23.374;2024-02-15T07:11:34;24.38;;;11.82;;
31872;SDS011;22407;42.820;23.374;2024-02-15T07:14:00;21.05;;;10.00;;
31872;SDS011;22407;42.820;23.374;2024-02-15T07:16:26;21.42;;;10.18;;
31872;SDS011;22407;42.820;23.374;2024-02-15T07:18:52;21.33;;;11.03;;
31872;SDS011;22407;42.820;23.374;2024-02-15T07:21:19;18.38;;;9.50;;
31872;SDS011;22407;42.820;23.374;2024-02-15T07:23:50;17.08;;;8.82;;
31872;SDS011;22407;42.820;23.374;2024-02-15T07:26:16;19.42;;;10.00;;
31872;SDS011;22407;42.820;23.374;2024-02-15T07:28:43;21.35;;;9.95;;
31872;SDS011;22407;42.820;23.374;2024-02-15T07:31:11;23.30;;;10.17;;
31872;SDS011;22407;42.820;23.374;2024-02-15T07:33:37;21.60;;;10.43;;
31872;SDS011;22407;42.820;23.374;2024-02-15T07:36:04;20.15;;;9.55;;
31872;SDS011;22407;42.820;23.374;2024-02-15T07:38:29;20.53;;;9.50;;
31872;SDS011;22407;42.820;23.374;2024-02-15T07:40:59;18.93;;;9.83;;
31872;SDS011;22407;42.820;23.374;2024-02-15T07:43:25;20.65;;;9.90;;
31872;SDS011;22407;42.820;23.374;2024-02-15T07:45:52;21.73;;;10.15;;
31872;SDS011;22407;42.820;23.374;2024-02-15T07:48:17;19.50;;;9.38;;
31872;SDS011;22407;42.820;23.374;2024-02-15T07:50:43;19.67;;;9.33;;
31872;SDS011;22407;42.820;23.374;2024-02-15T07:53:10;19.65;;;9.52;;
31872;SDS011;22407;42.820;23.374;2024-02-15T07:55:36;19.48;;;9.65;;
31872;SDS011;22407;42.820;23.374;2024-02-15T07:58:03;17.67;;;8.73;;
31872;SDS011;22407;42.820;23.374;2024-02-15T08:00:30;40.47;;;24.38;;
31872;SDS011;22407;42.820;23.374;2024-02-15T08:02:56;21.60;;;11.65;;
31872;SDS011;22407;42.820;23.374;2024-02-15T08:05:24;17.23;;;8.20;;
31872;SDS011;22407;42.820;23.374;2024-02-15T08:07:50;16.80;;;8.33;;
31872;SDS011;22407;42.820;23.374;2024-02-15T08:10:15;18.92;;;8.75;;
31872;SDS011;22407;42.820;23.374;2024-02-15T08:12:41;21.80;;;10.97;;
31872;SDS011;22407;42.820;23.374;2024-02-15T08:15:08;25.42;;;12.68;;
31872;SDS011;22407;42.820;23.374;2024-02-15T08:17:40;22.42;;;10.75;;
31872;SDS011;22407;42.820;23.374;2024-02-15T08:20:07;25.35;;;11.32;;
31872;SDS011;22407;42.820;23.374;2024-02-15T08:22:35;25.23;;;9.80;;
31872;SDS011;22407;42.820;23.374;2024-02-15T08:25:04;17.63;;;8.50;;
31872;SDS011;22407;42.820;23.374;2024-02-15T08:27:38;19.85;;;9.55;;
31872;SDS011;22407;42.820;23.374;2024-02-15T08:30:10;17.55;;;7.63;;
31872;SDS011;22407;42.820;23.374;2024-02-15T08:32:42;18.60;;;8.07;;
31872;SDS011;22407;42.820;23.374;2024-02-15T08:35:13;19.27;;;9.13;;
31872;SDS011;22407;42.820;23.374;2024-02-15T08:37:39;21.02;;;9.63;;
31872;SDS011;22407;42.820;23.374;2024-02-15T08:40:07;20.83;;;9.25;;
31872;SDS011;22407;42.820;23.374;2024-02-15T08:42:40;18.05;;;8.50;;
31872;SDS011;22407;42.820;23.374;2024-02-15T08:45:06;19.33;;;8.98;;
31872;SDS011;22407;42.820;23.374;2024-02-15T08:47:36;20.37;;;8.90;;
31872;SDS011;22407;42.820;23.374;2024-02-15T08:50:05;21.35;;;9.52;;
31872;SDS011;22407;42.820;23.374;2024-02-15T08:52:33;20.02;;;9.10;;
31872;SDS011;22407;42.820;23.374;2024-02-15T08:54:59;23.83;;;10.37;;
31872;SDS011;22407;42.820;23.374;2024-02-15T08:57:30;22.48;;;8.18;;
31872;SDS011;22407;42.820;23.374;2024-02-15T08:59:56;24.10;;;9.77;;
31872;SDS011;22407;42.820;23.374;2024-02-15T09:02:22;21.25;;;9.05;;
31872;SDS011;22407;42.820;23.374;2024-02-15T09:04:48;33.50;;;12.90;;
31872;SDS011;22407;42.820;23.374;2024-02-15T09:07:13;35.15;;;14.43;;
31872;SDS011;22407;42.820;23.374;2024-02-15T09:09:39;17.63;;;8.30;;
31872;SDS011;22407;42.820;23.374;2024-02-15T09:12:05;22.77;;;8.50;;
31872;SDS011;22407;42.820;23.374;2024-02-15T09:14:33;18.17;;;8.27;;
31872;SDS011;22407;42.820;23.374;2024-02-15T09:17:02;18.70;;;9.00;;
31872;SDS011;22407;42.820;23.374;2024-02-15T09:19:35;18.27;;;8.57;;
31872;SDS011;22407;42.820;23.374;2024-02-15T09:22:02;15.93;;;7.82;;
31872;SDS011;22407;42.820;23.374;2024-02-15T09:24:31;16.50;;;6.83;;
31872;SDS011;22407;42.820;23.374;2024-02-15T09:27:01;16.67;;;7.45;;
31872;SDS011;22407;42.820;23.374;2024-02-15T09:29:30;16.75;;;7.00;;
31872;SDS011;22407;42.820;23.374;2024-02-15T09:31:57;14.88;;;6.72;;
31872;SDS011;22407;42.820;23.374;2024-02-15T09:34:23;13.20;;;6.13;;
31872;SDS011;22407;42.820;23.374;2024-02-15T09:36:49;15.45;;;6.53;;
31872;SDS011;22407;42.820;23.374;2024-02-15T09:39:15;15.55;;;6.90;;
31872;SDS011;22407;42.820;23.374;2024-02-15T09:41:42;14.50;;;6.53;;
31872;SDS011;22407;42.820;23.374;2024-02-15T09:44:08;16.10;;;6.60;;
31872;SDS011;22407;42.820;23.374;2024-02-15T09:46:43;15.88;;;6.85;;
31872;SDS011;22407;42.820;23.374;2024-02-15T09:49:12;13.95;;;6.57;;
31872;SDS011;22407;42.820;23.374;2024-02-15T09:51:39;16.45;;;6.68;;
31872;SDS011;22407;42.820;23.374;2024-02-15T09:54:05;13.90;;;5.93;;
31872;SDS011;22407;42.820;23.374;2024-02-15T09:56:34;13.40;;;6.32;;
31872;SDS011;22407;42.820;23.374;2024-02-15T09:59:00;16.65;;;7.68;;
31872;SDS011;22407;42.820;23.374;2024-02-15T10:01:27;17.63;;;6.63;;
31872;SDS011;22407;42.820;23.374;2024-02-15T10:03:56;14.63;;;6.40;;
31872;SDS011;22407;42.820;23.374;2024-02-15T10:06:24;15.13;;;6.30;;
31872;SDS011;22407;42.820;23.374;2024-02-15T10:08:50;12.90;;;6.30;;
31872;SDS011;22407;42.820;23.374;2024-02-15T10:11:16;14.20;;;5.93;;
31872;SDS011;22407;42.820;23.374;2024-02-15T10:13:41;13.63;;;6.43;;
31872;SDS011;22407;42.820;23.374;2024-02-15T10:16:18;13.10;;;6.53;;
31872;SDS011;22407;42.820;23.374;2024-02-15T10:18:50;14.90;;;6.60;;
31872;SDS011;22407;42.820;23.374;2024-02-15T10:21:25;15.25;;;6.00;;
31872;SDS011;22407;42.820;23.374;2024-02-15T10:24:06;13.65;;;6.22;;
31872;SDS011;22407;42.820;23.374;2024-02-15T10:26:33;13.77;;;5.53;;
31872;SDS011;22407;42.820;23.374;2024-02-15T10:31:36;13.67;;;6.20;;
31872;SDS011;22407;42.820;23.374;2024-02-15T10:34:07;13.30;;;6.53;;
31872;SDS011;22407;42.820;23.374;2024-02-15T10:36:36;12.43;;;5.80;;
31872;SDS011;22407;42.820;23.374;2024-02-15T10:39:10;15.77;;;5.82;;
31872;SDS011;22407;42.820;23.374;2024-02-15T10:41:45;14.20;;;6.22;;
31872;SDS011;22407;42.820;23.374;2024-02-15T10:44:15;13.70;;;6.80;;
31872;SDS011;22407;42.820;23.374;2024-02-15T10:46:45;14.57;;;6.00;;
31872;SDS011;22407;42.820;23.374;2024-02-15T10:49:12;13.02;;;6.47;;
31872;SDS011;22407;42.820;23.374;2024-02-15T10:51:42;13.95;;;6.00;;
31872;SDS011;22407;42.820;23.374;2024-02-15T10:54:11;13.02;;;6.40;;
31872;SDS011;22407;42.820;23.374;2024-02-15T10:56:43;13.57;;;6.50;;
31872;SDS011;22407;42.820;23.374;2024-02-15T10:59:17;13.98;;;6.00;;
31872;SDS011;22407;42.820;23.374;2024-02-15T11:01:49;15.23;;;6.90;;
31872;SDS011;22407;42.820;23.374;2024-02-15T11:04:18;20.85;;;9.25;;
31872;SDS011;22407;42.820;23.374;2024-02-15T11:06:47;14.18;;;6.03;;
31872;SDS011;22407;42.820;23.374;2024-02-15T11:09:16;18.20;;;8.93;;
31872;SDS011;22407;42.820;23.374;2024-02-15T11:11:42;22.02;;;9.95;;
31872;SDS011;22407;42.820;23.374;2024-02-15T11:14:28;14.32;;;7.10;;
31872;SDS011;22407;42.820;23.374;2024-02-15T11:16:55;12.75;;;5.75;;
31872;SDS011;22407;42.820;23.374;2024-02-15T11:21:57;71.63;;;21.53;;
31872;SDS011;22407;42.820;23.374;2024-02-15T11:24:27;18.15;;;8.18;;
31872;SDS011;22407;42.820;23.374;2024-02-15T11:26:57;12.95;;;6.10;;
31872;SDS011;22407;42.820;23.374;2024-02-15T11:35:13;12.60;;;6.13;;
31872;SDS011;22407;42.820;23.374;2024-02-15T11:40:19;23.30;;;10.23;;
31872;SDS011;22407;42.820;23.374;2024-02-15T11:42:52;39.72;;;17.45;;
31872;SDS011;22407;42.820;23.374;2024-02-15T11:45:18;15.35;;;6.53;;
31872;SDS011;22407;42.820;23.374;2024-02-15T11:47:52;14.53;;;5.77;;
31872;SDS011;22407;42.820;23.374;2024-02-15T11:50:19;13.45;;;5.95;;
31872;SDS011;22407;42.820;23.374;2024-02-15T11:52:50;19.70;;;9.82;;
31872;SDS011;22407;42.820;23.374;2024-02-15T11:55:20;19.40;;;9.98;;
31872;SDS011;22407;42.820;23.374;2024-02-15T11:58:00;12.70;;;6.50;;
31872;SDS011;22407;42.820;23.374;2024-02-15T12:00:29;19.40;;;7.40;;
31872;SDS011;22407;42.820;23.374;2024-02-15T12:03:14;16.15;;;6.63;;
31872;SDS011;22407;42.820;23.374;2024-02-15T12:05:58;14.38;;;5.63;;
31872;SDS011;22407;42.820;23.374;2024-02-15T12:08:49;12.40;;;5.50;;
31872;SDS011;22407;42.820;23.374;2024-02-15T12:11:35;12.02;;;5.28;;
31872;SDS011;22407;42.820;23.374;2024-02-15T12:14:19;15.27;;;6.57;;
31872;SDS011;22407;42.820;23.374;2024-02-15T12:17:04;16.15;;;7.57;;
31872;SDS011;22407;42.820;23.374;2024-02-15T12:19:53;27.00;;;11.93;;
31872;SDS011;22407;42.820;23.374;2024-02-15T12:22:24;19.27;;;9.55;;
31872;SDS011;22407;42.820;23.374;2024-02-15T12:27:20;70.07;;;16.57;;
31872;SDS011;22407;42.820;23.374;2024-02-15T12:29:52;20.10;;;7.28;;
31872;SDS011;22407;42.820;23.374;2024-02-15T12:32:25;16.75;;;7.22;;
31872;SDS011;22407;42.820;23.374;2024-02-15T12:34:52;14.75;;;6.10;;
31872;SDS011;22407;42.820;23.374;2024-02-15T12:37:34;19.57;;;7.43;;
31872;SDS011;22407;42.820;23.374;2024-02-15T12:40:09;12.75;;;6.20;;
31872;SDS011;22407;42.820;23.374;2024-02-15T12:42:41;20.27;;;8.13;;
31872;SDS011;22407;42.820;23.374;2024-02-15T12:45:14;13.63;;;6.53;;
31872;SDS011;22407;42.820;23.374;2024-02-15T12:47:52;16.77;;;6.45;;
31872;SDS011;22407;42.820;23.374;2024-02-15T12:50:19;14.13;;;6.25;;
31872;SDS011;22407;42.820;23.374;2024-02-15T12:52:47;18.42;;;8.35;;
31872;SDS011;22407;42.820;23.374;2024-02-15T12:55:46;17.92;;;7.47;;
31872;SDS011;22407;42.820;23.374;2024-02-15T12:58:06;14.40;;;6.20;;
31872;SDS011;22407;42.820;23.374;2024-02-15T13:00:40;19.77;;;8.68;;
31872;SDS011;22407;42.820;23.374;2024-02-15T13:03:06;20.08;;;8.82;;
31872;SDS011;22407;42.820;23.374;2024-02-15T13:05:35;17.73;;;8.35;;
31872;SDS011;22407;42.820;23.374;2024-02-15T13:08:02;13.77;;;5.30;;
31872;SDS011;22407;42.820;23.374;2024-02-15T13:10:30;14.38;;;5.75;;
31872;SDS011;22407;42.820;23.374;2024-02-15T13:12:56;13.82;;;5.65;;
31872;SDS011;22407;42.820;23.374;2024-02-15T13:15:23;22.25;;;7.70;;
31872;SDS011;22407;42.820;23.374;2024-02-15T13:17:57;12.93;;;5.38;;
31872;SDS011;22407;42.820;23.374;2024-02-15T13:20:23;10.00;;;5.07;;
31872;SDS011;22407;42.820;23.374;2024-02-15T13:22:57;8.98;;;4.45;;
31872;SDS011;22407;42.820;23.374;2024-02-15T13:25:28;8.82;;;3.72;;
31872;SDS011;22407;42.820;23.374;2024-02-15T13:27:55;9.60;;;3.95;;
31872;SDS011;22407;42.820;23.374;2024-02-15T13:30:22;7.50;;;3.65;;
31872;SDS011;22407;42.820;23.374;2024-02-15T13:32:52;8.23;;;3.50;;
31872;SDS011;22407;42.820;23.374;2024-02-15T13:35:19;8.50;;;3.80;;
31872;SDS011;22407;42.820;23.374;2024-02-15T13:37:48;7.68;;;3.33;;
31872;SDS011;22407;42.820;23.374;2024-02-15T13:40:19;10.90;;;4.00;;
31872;SDS011;22407;42.820;23.374;2024-02-15T13:42:48;9.07;;;3.13;;
31872;SDS011;22407;42.820;23.374;2024-02-15T13:45:21;21.55;;;8.35;;
31872;SDS011;22407;42.820;23.374;2024-02-15T13:47:48;10.20;;;4.80;;
31872;SDS011;22407;42.820;23.374;2024-02-15T13:50:14;9.65;;;3.47;;
31872;SDS011;22407;42.820;23.374;2024-02-15T13:52:41;7.57;;;3.47;;
31872;SDS011;22407;42.820;23.374;2024-02-15T13:55:09;9.55;;;3.65;;
31872;SDS011;22407;42.820;23.374;2024-02-15T13:57:37;8.27;;;3.30;;
31872;SDS011;22407;42.820;23.374;2024-02-15T14:00:04;8.27;;;3.10;;
31872;SDS011;22407;42.820;23.374;2024-02-15T14:02:31;29.35;;;12.50;;
31872;SDS011;22407;42.820;23.374;2024-02-15T14:04:56;9.50;;;4.30;;
31872;SDS011;22407;42.820;23.374;2024-02-15T14:07:22;10.70;;;4.23;;
31872;SDS011;22407;42.820;23.374;2024-02-15T14:09:48;8.73;;;4.30;;
31872;SDS011;22407;42.820;23.374;2024-02-15T14:12:16;9.67;;;4.87;;
31872;SDS011;22407;42.820;23.374;2024-02-15T14:14:42;11.52;;;3.95;;
31872;SDS011;22407;42.820;23.374;2024-02-15T14:17:08;14.87;;;7.47;;
31872;SDS011;22407;42.820;23.374;2024-02-15T14:19:34;8.93;;;4.50;;
31872;SDS011;22407;42.820;23.374;2024-02-15T14:22:00;11.80;;;4.23;;
31872;SDS011;22407;42.820;23.374;2024-02-15T14:24:26;12.10;;;4.40;;
31872;SDS011;22407;42.820;23.374;2024-02-15T14:26:52;12.83;;;5.83;;
31872;SDS011;22407;42.820;23.374;2024-02-15T14:29:18;12.57;;;5.57;;
31872;SDS011;22407;42.820;23.374;2024-02-15T14:31:50;7.50;;;3.55;;
31872;SDS011;22407;42.820;23.374;2024-02-15T14:34:37;9.80;;;3.47;;
31872;SDS011;22407;42.820;23.374;2024-02-15T14:37:03;8.57;;;3.83;;
31872;SDS011;22407;42.820;23.374;2024-02-15T14:39:31;14.98;;;5.13;;